createdAt,value
2022-12-08T00:01:53.405Z,97209.34
2022-12-08T00:04:20.812Z,97206.38
2022-12-08T00:06:48.102Z,97201.84
2022-12-08T00:09:17.762Z,97205.59
2022-12-08T00:11:44.892Z,97202.66
2022-12-08T00:14:13.650Z,97194.03
2022-12-08T00:16:40.829Z,97195.13
2022-12-08T00:19:07.972Z,97185.75
2022-12-08T00:21:35.134Z,97181.19
2022-12-08T00:24:02.240Z,97192.97
2022-12-08T00:26:29.343Z,97191.34
2022-12-08T00:28:56.476Z,97187.34
2022-12-08T00:31:24.987Z,97181.97
2022-12-08T00:33:52.110Z,97174.69
2022-12-08T00:36:19.346Z,97175.53
2022-12-08T00:38:46.518Z,97171.22
2022-12-08T00:41:15.287Z,97179.81
2022-12-08T00:43:42.997Z,97173.91
2022-12-08T00:46:10.174Z,97165.34
2022-12-08T00:48:38.854Z,97167.22
2022-12-08T00:51:06.216Z,97171.22
2022-12-08T00:53:33.349Z,97172.59
2022-12-08T00:56:00.484Z,97176.63
2022-12-08T00:58:27.619Z,97175.28
2022-12-08T01:00:54.783Z,97175.84
2022-12-08T01:03:22.054Z,97171.53
2022-12-08T01:05:50.707Z,97176.38
2022-12-08T01:08:17.883Z,97171.81
2022-12-08T01:10:45.031Z,97174.75
2022-12-08T01:13:12.140Z,97175.28
2022-12-08T01:15:39.249Z,97171.50
2022-12-08T01:18:06.362Z,97178.75
2022-12-08T01:20:33.630Z,97183.28
2022-12-08T01:23:02.141Z,97179.28
2022-12-08T01:25:29.259Z,97179.03
2022-12-08T01:27:56.519Z,97179.31
2022-12-08T01:30:23.632Z,97176.91
2022-12-08T01:32:50.738Z,97169.66
2022-12-08T01:35:17.871Z,97182.53
2022-12-08T01:37:45.120Z,97178.00
2022-12-08T01:40:13.873Z,97180.94
2022-12-08T01:42:41.146Z,97175.59
2022-12-08T01:45:15.129Z,97175.06
2022-12-08T01:47:46.785Z,97161.13
2022-12-08T01:50:18.090Z,97160.84
2022-12-08T01:52:49.282Z,97160.56
2022-12-08T01:55:22.478Z,97153.56
2022-12-08T01:57:51.749Z,97155.75
2022-12-08T02:00:21.510Z,97157.34
2022-12-08T02:03:14.501Z,97159.22
2022-12-08T02:05:41.981Z,97154.13
2022-12-08T02:08:11.278Z,97153.59
2022-12-08T02:10:42.113Z,97136.72
2022-12-08T02:13:13.018Z,97144.44
2022-12-08T02:15:51.474Z,97140.97
2022-12-08T02:18:36.975Z,97135.59
2022-12-08T02:21:08.751Z,97121.41
2022-12-08T02:23:46.282Z,97122.50
2022-12-08T02:26:48.614Z,97128.94
2022-12-08T02:29:40.431Z,97132.94
2022-12-08T02:32:25.893Z,97133.19
2022-12-08T02:35:00.232Z,97118.16
2022-12-08T02:37:31.896Z,97127.31
2022-12-08T02:40:06.975Z,97128.09
2022-12-08T02:42:40.129Z,97129.47
2022-12-08T02:45:13.958Z,97123.84
2022-12-08T02:47:41.220Z,97120.88
2022-12-08T02:50:10.419Z,97117.91
2022-12-08T02:52:42.744Z,97112.28
2022-12-08T02:55:20.390Z,97109.06
2022-12-08T02:57:59.529Z,97108.78
2022-12-08T03:00:36.195Z,97106.09
2022-12-08T03:03:11.359Z,97108.78
2022-12-08T03:05:55.801Z,97102.88
2022-12-08T03:08:28.874Z,97087.88
2022-12-08T03:11:01.844Z,97097.78
2022-12-08T03:13:34.661Z,97097.00
2022-12-08T03:16:06.341Z,97096.72
2022-12-08T03:18:39.926Z,97098.84
2022-12-08T03:21:09.955Z,97094.59
2022-12-08T03:23:39.244Z,97099.69
2022-12-08T03:26:12.275Z,97062.47
2022-12-08T03:28:39.938Z,97078.25
2022-12-08T03:31:12.290Z,97088.69
2022-12-08T03:33:43.851Z,97082.50
2022-12-08T03:36:14.117Z,97075.31
2022-12-08T03:38:43.575Z,97087.34
2022-12-08T03:41:11.119Z,97085.22
2022-12-08T03:43:38.303Z,97055.78
2022-12-08T03:46:05.677Z,97082.50
2022-12-08T03:48:32.820Z,97072.03
2022-12-08T03:50:59.951Z,97071.69
2022-12-08T03:53:28.404Z,97063.19
2022-12-08T03:55:55.516Z,97065.94
2022-12-08T03:58:22.665Z,97064.84
2022-12-08T04:00:49.971Z,97063.13
2022-12-08T04:03:17.140Z,97058.50
2022-12-08T04:05:44.311Z,97060.34
2022-12-08T04:08:11.471Z,97057.63
2022-12-08T04:10:39.976Z,97060.16
2022-12-08T04:13:07.210Z,97055.44
2022-12-08T04:15:34.309Z,97054.06
2022-12-08T04:18:01.409Z,97056.56
2022-12-08T04:20:28.535Z,97059.31
2022-12-08T04:22:55.650Z,97059.91
2022-12-08T04:25:22.804Z,97050.13
2022-12-08T04:27:51.355Z,97065.41
2022-12-08T04:30:18.786Z,97062.47
2022-12-08T04:32:47.525Z,97064.91
2022-12-08T04:35:14.918Z,97060.59
2022-12-08T04:37:42.023Z,97065.16
2022-12-08T04:40:10.274Z,97063.88
2022-12-08T04:42:37.940Z,97062.13
2022-12-08T04:45:07.315Z,97064.03
2022-12-08T04:47:34.694Z,97051.66
2022-12-08T04:50:02.589Z,97050.81
2022-12-08T04:52:29.973Z,97058.34
2022-12-08T04:54:57.075Z,97055.97
2022-12-08T04:57:24.200Z,97051.06
2022-12-08T04:59:51.307Z,97056.63
2022-12-08T05:02:19.918Z,97062.56
2022-12-08T05:04:47.159Z,97056.34
2022-12-08T05:07:14.279Z,97057.44
2022-12-08T05:09:41.391Z,97058.84
2022-12-08T05:12:08.573Z,97055.38
2022-12-08T05:14:35.690Z,97058.13
2022-12-08T05:17:09.104Z,97052.53
2022-12-08T05:19:38.367Z,97055.25
2022-12-08T05:22:05.503Z,97059.84
2022-12-08T05:24:32.605Z,97058.00
2022-12-08T05:26:59.742Z,97066.63
2022-12-08T05:29:27.337Z,97058.84
2022-12-08T05:31:54.542Z,97064.19
2022-12-08T05:34:21.776Z,97065.53
2022-12-08T05:36:50.257Z,97063.09
2022-12-08T05:39:17.366Z,97066.84
2022-12-08T05:41:44.618Z,97057.72
2022-12-08T05:44:11.733Z,97053.16
2022-12-08T05:46:38.839Z,97053.41
2022-12-08T05:49:06.056Z,97053.72
2022-12-08T05:51:33.163Z,97048.88
2022-12-08T05:54:01.686Z,97033.91
2022-12-08T05:56:28.807Z,97052.13
2022-12-08T05:58:55.897Z,97042.75
2022-12-08T06:01:24.573Z,97043.28
2022-12-08T06:03:53.122Z,97043.84
2022-12-08T06:06:20.992Z,97039.28
2022-12-08T06:08:48.098Z,97048.13
2022-12-08T06:11:20.495Z,97047.06
2022-12-08T06:13:47.777Z,97042.28
2022-12-08T06:16:14.951Z,97036.91
2022-12-08T06:18:42.383Z,97048.44
2022-12-08T06:21:11.807Z,97043.88
2022-12-08T06:23:39.115Z,97046.81
2022-12-08T06:26:08.627Z,97046.00
2022-12-08T06:28:37.529Z,97047.34
2022-12-08T06:31:08.562Z,97040.34
2022-12-08T06:33:36.358Z,97041.69
2022-12-08T06:36:03.672Z,97038.75
2022-12-08T06:38:31.276Z,97047.31
2022-12-08T06:40:59.481Z,97044.91
2022-12-08T06:43:26.859Z,97041.16
2022-12-08T06:45:55.388Z,97044.91
2022-12-08T06:48:22.559Z,97043.88
2022-12-08T06:50:49.739Z,97042.81
2022-12-08T06:53:17.440Z,97038.78
2022-12-08T06:55:59.411Z,97051.13
2022-12-08T06:58:27.013Z,97052.19
2022-12-08T07:00:55.589Z,97053.53
2022-12-08T07:03:22.851Z,97061.56
2022-12-08T07:05:50.013Z,97054.63
2022-12-08T07:08:17.226Z,97067.25
2022-12-08T07:10:44.371Z,97059.47
2022-12-08T07:13:11.549Z,97062.13
2022-12-08T07:15:38.671Z,97058.91
2022-12-08T07:18:07.179Z,97051.66
2022-12-08T07:20:34.373Z,97052.47
2022-12-08T07:23:01.479Z,97053.25
2022-12-08T07:25:28.595Z,97055.41
2022-12-08T07:27:55.742Z,97053.25
2022-12-08T07:30:22.868Z,97060.22
2022-12-08T07:32:49.976Z,97055.13
2022-12-08T07:35:18.598Z,97055.69
2022-12-08T07:37:45.725Z,97051.41
2022-12-08T07:40:13.808Z,97058.63
2022-12-08T07:42:40.937Z,97044.69
2022-12-08T07:45:09.052Z,97048.72
2022-12-08T07:47:36.161Z,97041.22
2022-12-08T07:50:03.843Z,97046.06
2022-12-08T07:52:34.209Z,97053.31
2022-12-08T07:55:01.316Z,97062.41
2022-12-08T07:57:28.421Z,97057.63
2022-12-08T07:59:55.528Z,97063.25
2022-12-08T08:02:25.693Z,97054.94
2022-12-08T08:04:53.667Z,97061.09
2022-12-08T08:07:20.988Z,97058.69
2022-12-08T08:09:49.521Z,97058.69
2022-12-08T08:12:32.743Z,97060.28
2022-12-08T08:15:00.582Z,97058.94
2022-12-08T08:17:28.053Z,97052.78
2022-12-08T08:19:55.266Z,97054.88
2022-12-08T08:22:22.480Z,97059.19
2022-12-08T08:24:51.120Z,97060.78
2022-12-08T08:27:18.330Z,97058.66
2022-12-08T08:29:45.482Z,97054.88
2022-12-08T08:32:12.677Z,97060.00
2022-12-08T08:34:39.775Z,97055.47
2022-12-08T08:37:06.914Z,97061.63
2022-12-08T08:39:34.089Z,97059.47
2022-12-08T08:42:02.625Z,97064.31
2022-12-08T08:44:29.739Z,97059.22
2022-12-08T08:46:56.909Z,97056.25
2022-12-08T08:49:24.084Z,97062.47
2022-12-08T08:51:51.929Z,97057.63
2022-12-08T08:54:19.050Z,97045.31
2022-12-08T08:56:46.175Z,97049.84
2022-12-08T08:59:14.647Z,97054.94
2022-12-08T09:01:41.844Z,97051.44
2022-12-08T09:04:09.594Z,97057.63
2022-12-08T09:06:36.878Z,97059.19
2022-12-08T09:09:04.307Z,97062.41
2022-12-08T09:11:32.210Z,97060.00
2022-12-08T09:13:59.316Z,97056.78
2022-12-08T09:16:28.015Z,97058.13
2022-12-08T09:18:55.183Z,97054.94
2022-12-08T09:21:24.374Z,97058.41
2022-12-08T09:23:53.756Z,97054.63
2022-12-08T09:26:21.248Z,97050.63
2022-12-08T09:28:48.414Z,97045.00
2022-12-08T09:31:16.394Z,97047.41
2022-12-08T09:33:45.174Z,97045.81
2022-12-08T09:36:12.388Z,97043.16
2022-12-08T09:38:40.801Z,97031.66
2022-12-08T09:41:16.617Z,97040.75
2022-12-08T09:43:57.504Z,97038.91
2022-12-08T09:46:28.618Z,97038.84
2022-12-08T09:48:59.411Z,97037.22
2022-12-08T09:51:29.100Z,97025.44
2022-12-08T09:54:01.419Z,97028.09
2022-12-08T09:56:33.031Z,97020.59
2022-12-08T09:59:03.252Z,97028.59
2022-12-08T10:01:33.368Z,97014.66
2022-12-08T10:04:02.031Z,97019.75
2022-12-08T10:06:33.392Z,97021.13
2022-12-08T10:09:12.795Z,97017.34
2022-12-08T10:11:47.163Z,97018.19
2022-12-08T10:14:24.409Z,97008.00
2022-12-08T10:16:58.422Z,97004.78
2022-12-08T10:19:28.440Z,97008.81
2022-12-08T10:21:57.702Z,97001.31
2022-12-08T10:24:40.390Z,96999.69
2022-12-08T10:27:11.998Z,96997.56
2022-12-08T10:29:39.678Z,96994.38
2022-12-08T10:32:17.949Z,96994.06
2022-12-08T10:35:07.482Z,96942.72
2022-12-08T10:37:34.830Z,96982.06
2022-12-08T10:40:09.755Z,96987.38
2022-12-08T10:42:40.334Z,96980.91
2022-12-08T10:45:24.964Z,96984.13
2022-12-08T10:48:00.195Z,96977.19
2022-12-08T10:50:41.284Z,96959.97
2022-12-08T10:53:14.382Z,96962.38
2022-12-08T10:55:44.652Z,96955.66
2022-12-08T10:58:25.599Z,96959.16
2022-12-08T11:00:55.673Z,96951.66
2022-12-08T11:03:28.205Z,96945.28
2022-12-08T11:06:10.998Z,96953.81
2022-12-08T11:08:48.142Z,96944.97
2022-12-08T11:11:16.937Z,96933.22
2022-12-08T11:13:44.406Z,96939.38
2022-12-08T11:16:15.096Z,96934.31
2022-12-08T11:18:44.268Z,96939.09
2022-12-08T11:21:16.884Z,96927.31
2022-12-08T11:23:48.014Z,96924.38
2022-12-08T11:26:23.955Z,96927.34
2022-12-08T11:28:51.079Z,96927.66
2022-12-08T11:31:26.986Z,96924.66
2022-12-08T11:33:54.123Z,96917.16
2022-12-08T11:36:26.157Z,96913.41
2022-12-08T11:38:56.835Z,96903.66
2022-12-08T11:41:28.228Z,96919.19
2022-12-08T11:44:02.060Z,96916.50
2022-12-08T11:46:34.332Z,96910.31
2022-12-08T11:49:06.271Z,96906.88
2022-12-08T11:51:39.285Z,96909.28
2022-12-08T11:54:18.500Z,96907.44
2022-12-08T11:56:48.466Z,96906.41
2022-12-08T11:59:22.750Z,96901.81
2022-12-08T12:01:49.751Z,96902.94
2022-12-08T12:04:24.254Z,96905.56
2022-12-08T12:07:24.538Z,96901.56
2022-12-08T12:10:06.591Z,96899.16
2022-12-08T12:12:50.423Z,96896.47
2022-12-08T12:15:46.440Z,96898.38
2022-12-08T12:18:24.443Z,96888.75
2022-12-08T12:20:55.934Z,96889.56
2022-12-08T12:23:35.299Z,96890.34
2022-12-08T12:26:06.007Z,96880.72
2022-12-08T12:28:41.569Z,96886.53
2022-12-08T12:31:12.352Z,96878.50
2022-12-08T12:33:39.550Z,96848.03
2022-12-08T12:36:09.265Z,96881.16
2022-12-08T12:38:40.458Z,96885.13
2022-12-08T12:41:08.917Z,96876.56
2022-12-08T12:43:38.337Z,96876.03
2022-12-08T12:46:41.079Z,96874.16
2022-12-08T12:49:45.246Z,96866.44
2022-12-08T12:52:41.310Z,96867.00
2022-12-08T12:55:56.198Z,96864.59
2022-12-08T12:58:38.953Z,96858.75
2022-12-08T13:01:51.208Z,96866.25
2022-12-08T13:04:19.098Z,96860.06
2022-12-08T13:06:49.163Z,96855.78
2022-12-08T13:09:21.712Z,96845.09
2022-12-08T13:11:53.122Z,96846.72
2022-12-08T13:14:30.665Z,96859.28
2022-12-08T13:17:00.042Z,96860.34
2022-12-08T13:19:31.543Z,96854.69
2022-12-08T13:21:59.487Z,96854.94
2022-12-08T13:24:35.274Z,96855.47
2022-12-08T13:27:29.244Z,96856.50
2022-12-08T13:30:29.785Z,96851.38
2022-12-08T13:33:18.122Z,96854.84
2022-12-08T13:35:56.560Z,96848.19
2022-12-08T13:38:28.941Z,96854.94
2022-12-08T13:40:57.433Z,96855.47
2022-12-08T13:43:45.145Z,96858.66
2022-12-08T13:58:03.668Z,96856.09
2022-12-08T14:00:30.853Z,96851.53
2022-12-08T14:03:00.281Z,96849.94
2022-12-08T14:06:10.477Z,96841.13
2022-12-08T14:08:58.889Z,96855.31
2022-12-08T14:11:25.734Z,96850.72
2022-12-08T14:13:52.859Z,96855.28
2022-12-08T14:16:28.111Z,96842.06
2022-12-08T14:18:55.266Z,96829.78
2022-12-08T14:21:34.453Z,96825.44
2022-12-08T14:24:03.395Z,96821.94
2022-12-08T14:26:34.468Z,96824.84
2022-12-08T14:29:01.831Z,96815.25
2022-12-08T14:31:30.447Z,96815.53
2022-12-08T14:33:57.709Z,96809.72
2022-12-08T14:36:26.614Z,96801.44
2022-12-08T14:38:55.677Z,96814.00
2022-12-08T14:41:26.708Z,96812.66
2022-12-08T14:44:01.057Z,96811.59
2022-12-08T14:46:28.154Z,96818.34
2022-12-08T14:48:55.617Z,96809.75
2022-12-08T14:51:29.113Z,96802.28
2022-12-08T14:53:57.869Z,96807.38
2022-12-08T14:56:31.564Z,96815.16
2022-12-08T14:59:11.493Z,96814.38
2022-12-08T15:01:39.303Z,96822.16
2022-12-08T15:04:13.810Z,96826.66
2022-12-08T15:06:50.800Z,96821.81
2022-12-08T15:09:29.879Z,96820.94
2022-12-08T15:12:01.611Z,96826.84
2022-12-08T15:14:31.014Z,96824.97
2022-12-08T15:16:58.259Z,96814.81
2022-12-08T15:19:28.888Z,96818.81
2022-12-08T15:22:02.405Z,96816.91
2022-12-08T15:24:30.387Z,96827.13
2022-12-08T15:26:57.726Z,96833.84
2022-12-08T15:29:26.728Z,96827.16
2022-12-08T15:31:56.339Z,96833.34
2022-12-08T15:34:23.819Z,96828.56
2022-12-08T15:36:52.975Z,96829.34
2022-12-08T15:39:32.105Z,96814.13
2022-12-08T15:42:00.068Z,96824.81
2022-12-08T15:44:27.825Z,96820.53
2022-12-08T15:46:55.243Z,96821.91
2022-12-08T15:49:23.769Z,96782.34
2022-12-08T15:51:56.519Z,96824.31
2022-12-08T15:54:27.821Z,96828.38
2022-12-08T15:57:18.687Z,96820.28
2022-12-08T15:59:45.428Z,96820.53
2022-12-08T16:02:15.555Z,96830.13
2022-12-08T16:05:25.652Z,96820.78
2022-12-08T16:07:34.546Z,96824.44
2022-12-08T16:10:01.796Z,96812.16
2022-12-08T16:12:51.892Z,96819.91
2022-12-08T16:18:04.988Z,96831.69
2022-12-08T16:21:05.165Z,96829.59
2022-12-08T16:23:34.722Z,96832.03
2022-12-08T16:26:24.009Z,96822.16
2022-12-08T16:28:57.285Z,96836.09
2022-12-08T16:31:24.483Z,96833.41
2022-12-08T16:33:51.607Z,96827.78
2022-12-08T16:36:18.708Z,96828.88
2022-12-08T16:38:45.809Z,96823.81
2022-12-08T16:41:13.815Z,96807.22
2022-12-08T16:43:40.929Z,96824.31
2022-12-08T16:46:17.887Z,96804.81
2022-12-08T16:48:45.030Z,96826.75
2022-12-08T16:51:15.989Z,96802.94
2022-12-08T16:53:43.446Z,96822.16
2022-12-08T16:56:15.378Z,96828.56
2022-12-08T16:58:42.505Z,96829.63
2022-12-08T17:01:12.355Z,96815.41
2022-12-08T17:03:39.834Z,96826.13
2022-12-08T17:06:10.879Z,96822.88
2022-12-08T17:08:38.354Z,96823.19
2022-12-08T17:11:06.034Z,96817.06
2022-12-08T17:13:33.252Z,96816.25
2022-12-08T17:16:00.394Z,96796.69
2022-12-08T17:18:28.889Z,96799.31
2022-12-08T17:20:56.000Z,96809.69
2022-12-08T17:23:23.293Z,96803.84
2022-12-08T17:25:58.131Z,96810.06
2022-12-08T17:28:51.624Z,96808.84
2022-12-08T17:31:14.710Z,96772.03
2022-12-08T17:33:43.365Z,96808.00
2022-12-08T17:36:13.393Z,96804.34
2022-12-08T17:38:40.552Z,96793.56
2022-12-08T17:41:09.165Z,96800.19
2022-12-08T17:43:37.288Z,96801.34
2022-12-08T17:46:05.120Z,96796.91
2022-12-08T17:48:32.484Z,96808.19
2022-12-08T17:51:00.979Z,96809.06
2022-12-08T17:53:29.775Z,96812.25
2022-12-08T17:56:00.012Z,96812.69
2022-12-08T17:58:27.271Z,96805.47
2022-12-08T18:00:54.414Z,96799.81
2022-12-08T18:03:21.611Z,96797.72
2022-12-08T18:05:48.712Z,96806.94
2022-12-08T18:08:17.250Z,96792.47
2022-12-08T18:10:44.438Z,96796.25
2022-12-08T18:13:11.547Z,96803.03
2022-12-08T18:15:39.453Z,96789.38
2022-12-08T18:18:06.687Z,96785.66
2022-12-08T18:20:33.808Z,96784.34
2022-12-08T18:23:00.903Z,96793.56
2022-12-08T18:25:29.370Z,96784.69
2022-12-08T18:27:56.479Z,96782.84
2022-12-08T18:30:24.146Z,96784.00
2022-12-08T18:32:55.831Z,96785.69
2022-12-08T18:35:24.500Z,96787.28
2022-12-08T18:37:51.607Z,96782.00
2022-12-08T18:40:19.033Z,96783.03
2022-12-08T18:42:47.744Z,96781.63
2022-12-08T18:45:20.777Z,96775.25
2022-12-08T18:47:51.077Z,96781.63
2022-12-08T18:50:18.504Z,96778.03
2022-12-08T18:52:46.465Z,96773.75
2022-12-08T18:55:13.954Z,96777.16
2022-12-08T18:57:42.059Z,96780.41
2022-12-08T19:00:13.443Z,96773.56
2022-12-08T19:02:41.171Z,96769.38
2022-12-08T19:05:09.945Z,96769.31
2022-12-08T19:07:37.505Z,96775.47
2022-12-08T19:10:06.497Z,96758.31
2022-12-08T19:12:34.045Z,96774.94
2022-12-08T19:15:01.155Z,96784.47
2022-12-08T19:17:29.756Z,96777.94
2022-12-08T19:19:56.870Z,96774.06
2022-12-08T19:22:23.988Z,96778.38
2022-12-08T19:24:51.106Z,96777.97
2022-12-08T19:27:18.218Z,96781.28
2022-12-08T19:29:45.421Z,96785.78
2022-12-08T19:32:12.549Z,96793.84
2022-12-08T19:34:41.107Z,96793.13
2022-12-08T19:37:08.223Z,96789.41
2022-12-08T19:39:35.359Z,96791.81
2022-12-08T19:42:02.560Z,96782.75
2022-12-08T19:44:29.867Z,96782.38
2022-12-08T19:46:57.081Z,96776.72
2022-12-08T19:49:24.348Z,96778.38
2022-12-08T19:51:52.858Z,96766.31
2022-12-08T19:54:19.999Z,96774.38
2022-12-08T19:56:47.187Z,96762.97
2022-12-08T19:59:14.350Z,96762.47
2022-12-08T20:01:41.851Z,96762.28
2022-12-08T20:04:10.771Z,96756.72
2022-12-08T20:06:37.881Z,96761.03
2022-12-08T20:09:06.365Z,96758.69
2022-12-08T20:11:33.743Z,96765.44
2022-12-08T20:14:00.883Z,96773.03
2022-12-08T20:16:28.071Z,96768.19
2022-12-08T20:18:55.317Z,96759.38
2022-12-08T20:21:22.483Z,96771.50
2022-12-08T20:23:49.591Z,96781.22
2022-12-08T20:26:20.095Z,96784.19
2022-12-08T20:28:47.587Z,96771.03
2022-12-08T20:31:19.205Z,96765.91
2022-12-08T20:33:46.815Z,96785.16
2022-12-08T20:36:15.545Z,96777.78
2022-12-08T20:38:42.779Z,96786.94
2022-12-08T20:41:10.317Z,96771.22
2022-12-08T20:43:38.819Z,96784.31
2022-12-08T20:46:06.564Z,96781.63
2022-12-08T20:48:34.317Z,96787.34
2022-12-08T20:51:02.094Z,96778.34
2022-12-08T20:53:30.075Z,96782.13
2022-12-08T20:55:57.449Z,96780.00
2022-12-08T20:58:24.669Z,96784.13
2022-12-08T21:00:53.175Z,96785.22
2022-12-08T21:03:21.985Z,96792.72
2022-12-08T21:05:50.316Z,96778.78
2022-12-08T21:08:18.121Z,96782.34
2022-12-08T21:10:45.628Z,96784.78
2022-12-08T21:13:12.769Z,96777.31
2022-12-08T21:15:45.376Z,96775.94
2022-12-08T21:18:16.574Z,96779.41
2022-12-08T21:20:44.110Z,96774.84
2022-12-08T21:23:11.493Z,96782.34
2022-12-08T21:25:40.400Z,96790.03
2022-12-08T21:28:07.556Z,96793.31
2022-12-08T21:30:34.883Z,96784.47
2022-12-08T21:33:02.298Z,96788.22
2022-12-08T21:35:30.927Z,96792.00
2022-12-08T21:37:58.282Z,96783.47
2022-12-08T21:40:25.757Z,96785.31
2022-12-08T21:42:53.363Z,96775.16
2022-12-08T21:45:21.292Z,96774.84
2022-12-08T21:47:50.005Z,96764.97
2022-12-08T21:50:18.210Z,96772.00
2022-12-08T21:52:49.009Z,96756.75
2022-12-08T21:55:17.724Z,96754.63
2022-12-08T21:57:45.380Z,96733.53
2022-12-08T22:00:15.789Z,96762.13
2022-12-08T22:02:43.693Z,96761.38
2022-12-08T22:05:11.564Z,96757.84
2022-12-08T22:07:40.718Z,96762.63
2022-12-08T22:10:10.538Z,96758.09
2022-12-08T22:12:38.529Z,96750.81
2022-12-08T22:15:08.049Z,96759.13
2022-12-08T22:17:36.973Z,96759.13
2022-12-08T22:20:06.456Z,96765.00
2022-12-08T22:22:34.429Z,96757.47
2022-12-08T22:25:02.415Z,96754.59
2022-12-08T22:27:32.812Z,96759.38
2022-12-08T22:30:00.234Z,96739.06
2022-12-08T22:32:27.713Z,96755.41
2022-12-08T22:34:55.222Z,96752.50
2022-12-08T22:37:22.626Z,96763.75
2022-12-08T22:39:50.158Z,96753.31
2022-12-08T22:42:17.640Z,96751.97
2022-12-08T22:44:46.294Z,96754.41
2022-12-08T22:47:13.627Z,96751.47
2022-12-08T22:49:41.168Z,96739.94
2022-12-08T22:52:08.598Z,96742.63
2022-12-08T22:54:35.877Z,96747.97
2022-12-08T22:57:03.080Z,96743.44
2022-12-08T22:59:30.296Z,96742.06
2022-12-08T23:01:58.960Z,96740.97
2022-12-08T23:04:26.214Z,96745.03
2022-12-08T23:06:53.623Z,96727.38
2022-12-08T23:09:21.385Z,96741.25
2022-12-08T23:11:48.610Z,96745.31
2022-12-08T23:14:16.037Z,96730.81
2022-12-08T23:16:43.364Z,96744.41
2022-12-08T23:19:11.985Z,96735.84
2022-12-08T23:21:39.171Z,96739.91
2022-12-08T23:24:06.534Z,96736.19
2022-12-08T23:26:34.123Z,96735.38
2022-12-08T23:29:02.229Z,96738.03
2022-12-08T23:31:30.010Z,96724.19
2022-12-08T23:33:57.386Z,96729.22
2022-12-08T23:36:25.885Z,96724.69
2022-12-08T23:38:53.787Z,96715.81
2022-12-08T23:41:21.357Z,96723.34
2022-12-08T23:43:50.867Z,96720.94
2022-12-08T23:46:20.394Z,96725.22
2022-12-08T23:48:48.054Z,96714.25
2022-12-08T23:51:16.050Z,96708.66
2022-12-08T23:53:44.573Z,96704.91
2022-12-08T23:56:14.463Z,96699.19
2022-12-08T23:58:42.663Z,96696.59
